Hiyodori — JD2366 — position and weather

sailwx.info

Track history (hours):
 
Tides and Currents Weather Stations Pressure Air Temp Water Temp Dewpoint Dewpoint Depression Visibility Wind Speed Wind Dir Waves Ship Positions

Hiyodori

Last reported at 2018-Apr-19 15:21 UTC. Time now 2018-Apr-19 15:46 UTC.
Position N 34°34' E 138°36'.

Length 88 m; draft 3.6 m.

Type: Cargo ship. MMSI: 431000132.

Date/timePositionNaut miles runAvg speedWind from/ knotsBaromVisibWave heightAir tempDewpointWater temp
2018-Apr-19 15:21N 34°34' E 138°36'512.4
2018-Apr-19 14:55N 34°34' E 138°42'512.6
2018-Apr-19 14:30N 34°35' E 138°49'613.0
2018-Apr-19 14:00N 34°36' E 138°56'712.8
2018-Apr-19 13:29N 34°40' E 139°02'812.5
2018-Apr-19 12:51N 34°46' E 139°09'412.3
2018-Apr-19 12:31N 34°49' E 139°12'712.4
2018-Apr-19 11:56N 34°54' E 139°19'511.7
2018-Apr-19 11:28N 34°57' E 139°24'511.6
2018-Apr-19 11:01N 35°00' E 139°30'612.0
2018-Apr-19 10:31N 35°04' E 139°36'612.8
2018-Apr-19 10:00N 35°07' E 139°42'612.5
2018-Apr-19 09:31N 35°13' E 139°46'510.4
2018-Apr-19 09:00N 35°18' E 139°44'510.4
2018-Apr-19 08:30N 35°23' E 139°42'510.1
2018-Apr-19 08:00N 35°27' E 139°45'611.6
2018-Apr-19 07:31N 35°31' E 139°50'510.2
2018-Apr-19 07:00N 35°36' E 139°47'0 1.0
2018-Apr-19 06:30N 35°36' E 139°46'0 0.0
2018-Apr-19 05:48N 35°36' E 139°46'0 0.0
2018-Apr-19 05:27N 35°36' E 139°46'0 0.0
2018-Apr-19 04:54N 35°36' E 139°46'0 0.0
2018-Apr-19 04:24N 35°36' E 139°46'0 0.0
2018-Apr-19 04:00N 35°36' E 139°46'3 5.7
2018-Apr-19 03:30N 35°34' E 139°49'3 4.2
2018-Apr-19 02:48N 35°34' E 139°53'0 0.2
2018-Apr-19 02:30N 35°34' E 139°53'0 0.2
2018-Apr-19 02:01N 35°34' E 139°53'4 8.8
2018-Apr-19 01:30N 35°35' E 139°47'2 2.1
2018-Apr-19 00:38N 35°36' E 139°46'0 0.0
2018-Apr-19 00:29N 35°36' E 139°46'0 0.0
2018-Apr-18 23:56N 35°36' E 139°46'0 0.0
2018-Apr-18 23:28N 35°36' E 139°46'3 6.4
2018-Apr-18 23:00N 35°34' E 139°49'3 5.7
2018-Apr-18 22:30N 35°34' E 139°52'2 3.5
2018-Apr-18 22:00N 35°32' E 139°53'4 8.1
2018-Apr-18 21:30N 35°28' E 139°51'510.8
2018-Apr-18 21:00N 35°24' E 139°46'611.5
2018-Apr-18 20:31N 35°19' E 139°44'611.3
2018-Apr-18 20:00N 35°14' E 139°47'611.3
2018-Apr-18 19:30N 35°08' E 139°46'510.6
2018-Apr-18 19:00N 35°04' E 139°42'611.7
2018-Apr-18 18:30N 35°00' E 139°37'1512.5
2018-Apr-18 17:17N 34°51' E 139°22'412.9
2018-Apr-18 16:59N 34°49' E 139°18'713.1
2018-Apr-18 16:29N 34°44' E 139°12'712.4
2018-Apr-18 15:53N 34°40' E 139°05'512.8
2018-Apr-18 15:29N 34°37' E 139°00'911.5
2018-Apr-18 14:41N 34°35' E 138°49'311.6
2018-Apr-18 14:26N 34°35' E 138°46'712.3
2018-Apr-18 13:52N 34°34' E 138°37'612.5
2018-Apr-18 13:24N 34°34' E 138°30'512.6
2018-Apr-18 12:58N 34°34' E 138°24'612.2
2018-Apr-18 12:27N 34°34' E 138°16'612.1
2018-Apr-18 12:00N 34°34' E 138°09'3812.4
2018-Apr-18 08:54N 34°33' E 137°23'612.3
2018-Apr-18 08:27N 34°33' E 137°16'1611.0
2018-Apr-18 06:59N 34°36' E 136°57'612.1
2018-Apr-18 06:30N 34°39' E 136°51'612.5
2018-Apr-18 06:00N 34°45' E 136°47'612.4
2018-Apr-18 05:30N 34°51' E 136°46'612.5
2018-Apr-18 05:00N 34°57' E 136°47'611.2
2018-Apr-18 04:30N 35°02' E 136°51'1 2.2
2018-Apr-18 03:58N 35°03' E 136°50'0 0.0
2018-Apr-18 03:28N 35°03' E 136°50'0 0.0
2018-Apr-18 02:58N 35°03' E 136°50'0 0.0
2018-Apr-18 02:28N 35°03' E 136°50'0 0.0
2018-Apr-18 01:58N 35°03' E 136°50'0 0.0
2018-Apr-18 01:28N 35°03' E 136°50'0 0.0
2018-Apr-18 00:55N 35°03' E 136°50'0 0.4
2018-Apr-18 00:30N 35°03' E 136°50'4 7.8
2018-Apr-18 00:01N 34°59' E 136°49'510.4
2018-Apr-17 23:31N 34°54' E 136°47'4 7.4
2018-Apr-17 23:01N 34°50' E 136°47'4 7.3
2018-Apr-17 22:31N 34°47' E 136°47'510.4
2018-Apr-17 22:01N 34°42' E 136°50'510.6
2018-Apr-17 21:30N 34°38' E 136°54'511.0
2018-Apr-17 21:01N 34°35' E 136°59'910.7
2018-Apr-17 20:09N 34°32' E 137°10'210.9
2018-Apr-17 19:58N 34°32' E 137°12'4810.5
2018-Apr-17 15:23N 34°33' E 138°11'511.7
2018-Apr-17 14:55N 34°34' E 138°17'811.5
2018-Apr-17 14:15N 34°34' E 138°27'610.9
2018-Apr-17 13:40N 34°35' E 138°34'211.1
2018-Apr-17 13:27N 34°35' E 138°37'511.5
2018-Apr-17 12:59N 34°35' E 138°44'911.8
2018-Apr-17 12:15N 34°35' E 138°55'511.5
2018-Apr-17 11:51N 34°37' E 138°59'411.5
2018-Apr-17 11:29N 34°40' E 139°03'912.1
2018-Apr-17 10:43N 34°47' E 139°11'1511.3
2018-Apr-17 09:25N 34°57' E 139°24'410.4
2018-Apr-17 09:00N 35°00' E 139°28'510.1
2018-Apr-17 08:30N 35°02' E 139°33'611.5
2018-Apr-17 08:00N 35°05' E 139°39'612.2
2018-Apr-17 07:31N 35°10' E 139°44'511.0
2018-Apr-17 07:00N 35°15' E 139°46'510.8
2018-Apr-17 06:30N 35°20' E 139°43'510.5
2018-Apr-17 06:00N 35°25' E 139°43'611.6
2018-Apr-17 05:30N 35°29' E 139°48'5 8.9
2018-Apr-17 04:58N 35°34' E 139°49'3 3.8
2018-Apr-17 04:07N 35°36' E 139°46'0 0.0
2018-Apr-17 03:55N 35°36' E 139°46'0 0.0
2018-Apr-17 03:25N 35°36' E 139°46'0 0.0
2018-Apr-17 02:55N 35°36' E 139°46'0 0.0
2018-Apr-17 02:26N 35°36' E 139°46'0 0.0
2018-Apr-17 01:59N 35°36' E 139°46'0 0.0
2018-Apr-17 01:25N 35°36' E 139°46'0 0.0
2018-Apr-17 01:00N 35°36' E 139°46'3 6.1
2018-Apr-17 00:30N 35°34' E 139°49'510.8
2018-Apr-17 00:00N 35°30' E 139°52'612.0
2018-Apr-16 23:30N 35°25' E 139°47'611.5
2018-Apr-16 23:00N 35°20' E 139°44'510.6
2018-Apr-16 22:30N 35°15' E 139°47'611.3
2018-Apr-16 22:00N 35°09' E 139°46'510.7
2018-Apr-16 21:30N 35°05' E 139°43'511.0
2018-Apr-16 21:00N 35°01' E 139°37'611.6
2018-Apr-16 20:30N 34°58' E 139°32'912.1
2018-Apr-16 19:45N 34°52' E 139°23'411.9
2018-Apr-16 19:25N 34°50' E 139°19'511.8
2018-Apr-16 19:00N 34°46' E 139°15'811.6
2018-Apr-16 18:17N 34°41' E 139°07'310.7
2018-Apr-16 18:00N 34°39' E 139°04'610.8
2018-Apr-16 17:26N 34°36' E 138°58'710.6
2018-Apr-16 16:45N 34°35' E 138°49'310.7
2018-Apr-16 16:27N 34°35' E 138°45'4 8.9
2018-Apr-16 16:00N 34°36' E 138°41'511.0
2018-Apr-16 15:30N 34°41' E 138°39'611.3
2018-Apr-16 15:00N 34°47' E 138°38'611.4
2018-Apr-16 14:30N 34°53' E 138°36'611.7
2018-Apr-16 14:00N 34°58' E 138°34'5 9.1
2018-Apr-16 13:30N 35°02' E 138°31'0 0.8
2018-Apr-16 12:56N 35°02' E 138°30'0 0.0
2018-Apr-16 12:29N 35°02' E 138°30'0 0.0
2018-Apr-16 11:59N 35°02' E 138°30'0 0.0
2018-Apr-16 11:30N 35°02' E 138°30'0 0.0
2018-Apr-16 11:01N 35°02' E 138°30'1 1.8
2018-Apr-16 10:30N 35°02' E 138°31'3 6.0
2018-Apr-16 10:01N 34°59' E 138°33'611.6
2018-Apr-16 09:31N 34°54' E 138°30'612.2
2018-Apr-16 09:00N 34°48' E 138°26'612.1
2018-Apr-16 08:28N 34°43' E 138°22'612.7
2018-Apr-16 07:58N 34°37' E 138°18'611.8
2018-Apr-16 07:30N 34°35' E 138°12'1013.1
2018-Apr-16 06:45N 34°34' E 138°00'3313.3
2018-Apr-16 04:15N 34°33' E 137°20'413.5
2018-Apr-16 03:59N 34°32' E 137°16'1013.3
2018-Apr-16 03:12N 34°32' E 137°03'513.4
2018-Apr-16 02:49N 34°35' E 136°58'514.2
2018-Apr-16 02:29N 34°38' E 136°54'714.1
2018-Apr-16 02:00N 34°43' E 136°48'714.4
2018-Apr-16 01:31N 34°50' E 136°46'714.5
2018-Apr-16 01:00N 34°57' E 136°46'611.4
2018-Apr-16 00:30N 35°02' E 136°50'1 2.7
2018-Apr-15 23:59N 35°03' E 136°50'0 0.0
2018-Apr-15 23:29N 35°03' E 136°50'0 0.0
2018-Apr-15 23:00N 35°03' E 136°50'2 4.2
2018-Apr-15 22:30N 35°01' E 136°50'510.1
2018-Apr-15 22:00N 34°56' E 136°47'5 9.1
2018-Apr-15 21:30N 34°52' E 136°46'3 6.5
2018-Apr-15 21:00N 34°49' E 136°46'5 9.5
2018-Apr-15 20:30N 34°44' E 136°48'5 9.8
2018-Apr-15 19:57N 34°40' E 136°52'510.3
2018-Apr-15 19:29N 34°37' E 136°57'22 9.6
2018-Apr-15 17:12N 34°32' E 137°23'42 8.1
2018-Apr-15 11:59N 34°34' E 138°14'3 6.8
2018-Apr-15 11:30N 34°35' E 138°18'5 9.7
2018-Apr-15 11:00N 34°39' E 138°15'1 1.0
2018-Apr-15 10:18N 34°39' E 138°14'0 0.0
2018-Apr-15 10:00N 34°39' E 138°14'0 0.0
2018-Apr-15 09:27N 34°39' E 138°14'0 0.0
2018-Apr-15 08:57N 34°39' E 138°14'0 0.0
2018-Apr-15 08:30N 34°39' E 138°14'0 0.0
2018-Apr-15 08:00N 34°39' E 138°14'0 0.0
2018-Apr-15 06:56N 34°39' E 138°14'0 0.0
2018-Apr-15 06:30N 34°39' E 138°14'0 0.0
2018-Apr-15 06:00N 34°39' E 138°14'0 0.0
2018-Apr-15 05:11N 34°39' E 138°14'0 0.0
2018-Apr-15 04:55N 34°39' E 138°14'0 0.0
2018-Apr-15 04:29N 34°39' E 138°14'0 0.1
2018-Apr-15 04:00N 34°39' E 138°14'0 0.0
2018-Apr-15 03:30N 34°39' E 138°14'0 0.0
2018-Apr-15 03:00N 34°39' E 138°14'0 0.0
2018-Apr-15 02:30N 34°39' E 138°14'0 0.0
2018-Apr-15 02:00N 34°39' E 138°14'0 0.0
2018-Apr-15 01:30N 34°39' E 138°14'0 0.0
2018-Apr-15 01:00N 34°39' E 138°14'0 0.0
2018-Apr-15 00:30N 34°39' E 138°14'0 0.0
2018-Apr-15 00:00N 34°39' E 138°14'0 0.0
2018-Apr-14 23:25N 34°39' E 138°14'0 0.1
2018-Apr-14 22:48N 34°39' E 138°14'0 0.0
2018-Apr-14 22:18N 34°39' E 138°14'0 0.0
2018-Apr-14 20:42N 34°39' E 138°14'0 0.0
2018-Apr-14 20:01N 34°39' E 138°14'0 0.0
2018-Apr-14 19:57N 34°39' E 138°14'0 0.0
2018-Apr-14 18:38N 34°39' E 138°14'0 0.0
2018-Apr-14 18:22N 34°39' E 138°14'0 0.0
2018-Apr-14 16:41N 34°39' E 138°13'1 2.5
2018-Apr-14 16:14N 34°40' E 138°14'3 8.0
2018-Apr-14 15:54N 34°40' E 138°17'613.4
2018-Apr-14 15:27N 34°39' E 138°24'613.3
2018-Apr-14 15:00N 34°38' E 138°31'713.4
2018-Apr-14 14:28N 34°37' E 138°40'712.5
2018-Apr-14 13:56N 34°35' E 138°48'511.0
2018-Apr-14 13:27N 34°35' E 138°54'811.0
2018-Apr-14 12:41N 34°40' E 139°02'312.7
2018-Apr-14 12:25N 34°43' E 139°05'613.2
2018-Apr-14 11:59N 34°48' E 139°09'912.0
2018-Apr-14 11:14N 34°53' E 139°18'311.0
2018-Apr-14 10:56N 34°55' E 139°21'510.8
2018-Apr-14 10:30N 34°58' E 139°26'510.6
2018-Apr-14 10:01N 35°01' E 139°31'611.2
2018-Apr-14 09:30N 35°04' E 139°37'611.1
2018-Apr-14 09:01N 35°07' E 139°42'611.5
2018-Apr-14 08:30N 35°12' E 139°46'611.5
2018-Apr-14 08:00N 35°18' E 139°44'612.6
2018-Apr-14 07:30N 35°23' E 139°41'1 1.4
2018-Apr-14 07:00N 35°24' E 139°41'0 0.0
2018-Apr-14 06:30N 35°24' E 139°41'0 0.0
2018-Apr-14 06:00N 35°24' E 139°41'0 0.0
2018-Apr-14 05:30N 35°24' E 139°41'1 1.2
2018-Apr-14 05:00N 35°24' E 139°40'2 4.8
2018-Apr-14 04:30N 35°21' E 139°41'510.9
2018-Apr-14 04:00N 35°17' E 139°46'611.1
2018-Apr-14 03:30N 35°11' E 139°46'611.7
2018-Apr-14 03:00N 35°06' E 139°45'611.2
2018-Apr-14 02:31N 35°01' E 139°41'611.5
2018-Apr-14 02:00N 34°58' E 139°35'1112.1
2018-Apr-14 01:04N 34°52' E 139°23'212.4
2018-Apr-14 00:55N 34°51' E 139°21'512.8
2018-Apr-14 00:30N 34°48' E 139°16'1012.4
2018-Apr-13 23:44N 34°42' E 139°07'312.5
2018-Apr-13 23:28N 34°40' E 139°04'611.7
2018-Apr-13 22:56N 34°36' E 138°58'711.8
2018-Apr-13 22:19N 34°35' E 138°49'411.8
2018-Apr-13 22:00N 34°35' E 138°44'611.6
2018-Apr-13 21:31N 34°35' E 138°37'610.9
2018-Apr-13 20:58N 34°34' E 138°30'511.2
2018-Apr-13 20:30N 34°34' E 138°24'611.5
2018-Apr-13 20:01N 34°34' E 138°17'611.4
2018-Apr-13 19:28N 34°34' E 138°09'3911.6
2018-Apr-13 16:08N 34°33' E 137°23'211.9
2018-Apr-13 15:58N 34°33' E 137°20'612.0
2018-Apr-13 15:30N 34°32' E 137°13'911.7
2018-Apr-13 14:42N 34°32' E 137°02'512.5
2018-Apr-13 14:16N 34°36' E 136°57'312.7
2018-Apr-13 14:00N 34°38' E 136°54'812.2
2018-Apr-13 13:23N 34°43' E 136°48'512.8
2018-Apr-13 13:00N 34°48' E 136°46'613.0
2018-Apr-13 12:30N 34°54' E 136°46'612.3
2018-Apr-13 12:00N 34°60' E 136°49'3 6.6
2018-Apr-13 11:30N 35°03' E 136°50'0 0.0
2018-Apr-13 10:58N 35°03' E 136°50'0 0.0
2018-Apr-13 10:25N 35°03' E 136°50'0 0.0
2018-Apr-13 09:58N 35°03' E 136°50'2 2.4
2018-Apr-13 09:01N 35°01' E 136°48'510.1
2018-Apr-13 08:30N 34°56' E 136°46'5 9.7
2018-Apr-13 08:00N 34°51' E 136°47'5 9.8
2018-Apr-13 07:30N 34°46' E 136°47'510.0
2018-Apr-13 07:00N 34°43' E 136°51'510.2
2018-Apr-13 06:29N 34°38' E 136°55'511.3
2018-Apr-13 06:00N 34°34' E 136°60'1011.5
2018-Apr-13 05:07N 34°31' E 137°11'210.9
2018-Apr-13 04:56N 34°31' E 137°14'56 9.4
2018-Apr-12 23:00N 34°34' E 138°21'5 9.4
2018-Apr-12 22:31N 34°35' E 138°27'5 9.9
2018-Apr-12 21:58N 34°35' E 138°33'510.0
2018-Apr-12 21:31N 34°35' E 138°39'510.0
2018-Apr-12 20:59N 34°35' E 138°45'8 9.8
2018-Apr-12 20:12N 34°36' E 138°54'1110.7
2018-Apr-12 19:11N 34°43' E 139°04'511.5
2018-Apr-12 18:46N 34°47' E 139°08'711.7
2018-Apr-12 18:11N 34°51' E 139°14'310.7
2018-Apr-12 17:56N 34°53' E 139°17'510.0
2018-Apr-12 17:28N 34°55' E 139°22'5 9.9
2018-Apr-12 17:00N 34°58' E 139°26'510.7
2018-Apr-12 16:30N 35°01' E 139°32'611.2
2018-Apr-12 16:01N 35°04' E 139°37'612.0
2018-Apr-12 15:30N 35°08' E 139°43'611.5
2018-Apr-12 15:00N 35°13' E 139°46'510.7
2018-Apr-12 14:30N 35°18' E 139°44'611.0
2018-Apr-12 14:00N 35°23' E 139°42'612.0
2018-Apr-12 13:30N 35°28' E 139°47'611.9
2018-Apr-12 13:01N 35°33' E 139°51'510.0
2018-Apr-12 12:30N 35°36' E 139°46'0 0.1
2018-Apr-12 11:56N 35°36' E 139°46'0 0.0
2018-Apr-12 11:23N 35°36' E 139°46'0 0.0
2018-Apr-12 10:59N 35°36' E 139°46'0 0.0
2018-Apr-12 10:30N 35°36' E 139°46'3 6.2
2018-Apr-12 10:00N 35°34' E 139°49'3 6.7
2018-Apr-12 09:30N 35°33' E 139°53'0 0.1
2018-Apr-12 08:58N 35°33' E 139°53'0 0.2
2018-Apr-12 08:28N 35°33' E 139°53'0 0.0
2018-Apr-12 07:58N 35°33' E 139°53'0 0.0
2018-Apr-12 07:28N 35°33' E 139°53'0 0.0
2018-Apr-12 06:55N 35°33' E 139°53'0 0.0
2018-Apr-12 05:25N 35°33' E 139°53'0 0.1
2018-Apr-12 04:49N 35°33' E 139°53'0 0.0
2018-Apr-12 04:28N 35°33' E 139°53'0 0.0
2018-Apr-12 03:58N 35°33' E 139°53'0 0.1
2018-Apr-12 03:16N 35°33' E 139°53'0 0.1
2018-Apr-12 02:52N 35°33' E 139°53'0 0.1
2018-Apr-12 02:28N 35°33' E 139°53'0 0.0
2018-Apr-12 01:55N 35°33' E 139°53'0 0.0
2018-Apr-12 01:25N 35°33' E 139°53'0 0.0
2018-Apr-12 00:58N 35°33' E 139°53'0 0.0
2018-Apr-12 00:28N 35°33' E 139°53'0 0.0
2018-Apr-11 23:58N 35°33' E 139°53'0 0.0
2018-Apr-11 23:28N 35°33' E 139°53'0 0.0
2018-Apr-11 22:58N 35°33' E 139°53'0 0.0
2018-Apr-11 22:28N 35°33' E 139°53'0 0.0
2018-Apr-11 21:52N 35°33' E 139°53'0 0.0
2018-Apr-11 21:25N 35°33' E 139°53'0 0.0
2018-Apr-11 20:49N 35°33' E 139°53'0 0.0
2018-Apr-11 20:25N 35°33' E 139°53'0 0.2
2018-Apr-11 19:47N 35°33' E 139°53'1 2.5
2018-Apr-11 19:30N 35°33' E 139°53'510.9
2018-Apr-11 19:00N 35°28' E 139°51'611.1
2018-Apr-11 18:30N 35°24' E 139°46'611.4
2018-Apr-11 18:00N 35°18' E 139°45'611.1
2018-Apr-11 17:30N 35°13' E 139°47'611.9
2018-Apr-11 17:00N 35°07' E 139°45'611.0
2018-Apr-11 16:30N 35°03' E 139°41'612.0
2018-Apr-11 16:00N 34°59' E 139°35'713.4
2018-Apr-11 15:27N 34°55' E 139°27'714.3
2018-Apr-11 14:57N 34°51' E 139°20'612.5
2018-Apr-11 14:30N 34°47' E 139°15'911.9
2018-Apr-11 13:44N 34°42' E 139°06'711.7
2018-Apr-11 13:08N 34°37' E 138°60'212.0
2018-Apr-11 13:00N 34°36' E 138°58'712.8
2018-Apr-11 12:25N 34°35' E 138°49'612.0
2018-Apr-11 11:58N 34°35' E 138°43'611.7
2018-Apr-11 11:28N 34°35' E 138°36'611.0
2018-Apr-11 10:57N 34°35' E 138°29'511.2
2018-Apr-11 10:29N 34°35' E 138°22'611.5
2018-Apr-11 09:58N 34°35' E 138°15'4412.1
2018-Apr-11 06:20N 34°34' E 137°22'512.0
2018-Apr-11 05:54N 34°33' E 137°16'1810.0
2018-Apr-11 04:03N 34°38' E 136°54'110.1
2018-Apr-11 03:59N 34°38' E 136°53'6 9.9
2018-Apr-11 03:21N 34°43' E 136°49'410.4
2018-Apr-11 03:00N 34°46' E 136°46'510.5
2018-Apr-11 02:30N 34°52' E 136°46'510.9
2018-Apr-11 02:00N 34°57' E 136°47'611.1
2018-Apr-11 01:30N 35°01' E 136°50'1 2.4
2018-Apr-11 00:59N 35°03' E 136°50'0 0.0
2018-Apr-11 00:29N 35°03' E 136°50'0 0.0
2018-Apr-10 23:59N 35°03' E 136°50'0 0.0
2018-Apr-10 23:27N 35°03' E 136°50'1 3.4
2018-Apr-10 23:00N 35°01' E 136°50'5 9.7
2018-Apr-10 22:30N 34°58' E 136°45'0 0.2
2018-Apr-10 22:00N 34°58' E 136°45'0 0.0
2018-Apr-10 21:30N 34°58' E 136°45'0 0.0
2018-Apr-10 21:00N 34°58' E 136°45'0 0.0
2018-Apr-10 20:30N 34°58' E 136°45'0 0.1
2018-Apr-10 20:00N 34°58' E 136°45'0 0.0
2018-Apr-10 19:30N 34°58' E 136°45'0 0.0
2018-Apr-10 19:00N 34°58' E 136°45'0 0.0
2018-Apr-10 18:30N 34°58' E 136°45'0 0.1
2018-Apr-10 18:00N 34°58' E 136°45'0 0.1
2018-Apr-10 17:30N 34°58' E 136°45'0 0.1
2018-Apr-10 17:00N 34°58' E 136°45'0 0.0
2018-Apr-10 16:30N 34°58' E 136°45'0 0.0
2018-Apr-10 16:00N 34°58' E 136°45'0 0.0
2018-Apr-10 15:30N 34°58' E 136°45'0 0.0
2018-Apr-10 15:00N 34°58' E 136°45'0 0.0
2018-Apr-10 14:30N 34°58' E 136°45'0 0.0
2018-Apr-10 14:00N 34°58' E 136°45'0 0.0
2018-Apr-10 13:30N 34°58' E 136°45'0 0.0
2018-Apr-10 13:00N 34°58' E 136°45'0 0.0
2018-Apr-10 12:30N 34°58' E 136°45'0 0.0
2018-Apr-10 12:00N 34°58' E 136°45'0 0.0
2018-Apr-10 11:30N 34°58' E 136°45'0 0.0
2018-Apr-10 11:00N 34°58' E 136°45'0 0.0
2018-Apr-10 10:30N 34°58' E 136°45'0 0.0
2018-Apr-10 10:00N 34°58' E 136°45'0 0.0
2018-Apr-10 09:30N 34°58' E 136°45'0 0.1
2018-Apr-10 09:00N 34°58' E 136°45'0 0.0
2018-Apr-10 08:30N 34°58' E 136°45'0 0.0
2018-Apr-10 08:00N 34°58' E 136°45'0 0.0
2018-Apr-10 07:30N 34°58' E 136°45'3 6.2
2018-Apr-10 07:00N 34°59' E 136°42'1 2.6
2018-Apr-10 06:27N 34°59' E 136°40'0 0.0
2018-Apr-10 05:57N 34°60' E 136°40'0 0.0
2018-Apr-10 05:27N 34°60' E 136°40'0 0.0
2018-Apr-10 05:00N 34°59' E 136°40'0 0.0
2018-Apr-10 04:27N 34°60' E 136°40'0 0.0
2018-Apr-10 04:00N 34°60' E 136°40'3 6.4
2018-Apr-10 03:31N 34°59' E 136°44'5 9.9
2018-Apr-10 03:00N 34°54' E 136°43'611.8
2018-Apr-10 02:30N 34°48' E 136°46'713.2
2018-Apr-10 02:00N 34°43' E 136°51'1211.5
2018-Apr-10 00:58N 34°41' E 137°06'712.4
2018-Apr-10 00:24N 34°44' E 137°14'4 2.9
2018-Apr-09 23:02N 34°44' E 137°18'0 3.4
2018-Apr-09 23:00N 34°44' E 137°18'5 9.7
2018-Apr-09 22:27N 34°44' E 137°12'1 0.8
2018-Apr-09 21:44N 34°44' E 137°11'0 0.0
2018-Apr-09 21:08N 34°44' E 137°11'0 0.0
2018-Apr-09 20:56N 34°44' E 137°11'2 2.7
2018-Apr-09 20:19N 34°43' E 137°09'310.9
2018-Apr-09 20:00N 34°42' E 137°06'610.4
2018-Apr-09 19:28N 34°38' E 137°00'4 8.3
2018-Apr-09 19:00N 34°34' E 136°60'1910.4
2018-Apr-09 17:13N 34°31' E 137°22'  
Track history (hours):
 
Tides and Currents Weather Stations Pressure Air Temp Water Temp Dewpoint Dewpoint Depression Visibility Wind Speed Wind Dir Waves Ship Positions

Hiyodori

Last reported at 2018-Apr-19 15:21 UTC. Time now 2018-Apr-19 15:46 UTC.
Position N 34°34' E 138°36'.

Length 88 m; draft 3.6 m.

Type: Cargo ship. MMSI: 431000132.

Date/timePositionNaut miles runAvg speedWind from/ knotsBaromVisibWave heightAir tempDewpointWater temp
2018-Apr-19 15:21N 34°34' E 138°36'512.4
2018-Apr-19 14:55N 34°34' E 138°42'512.6
2018-Apr-19 14:30N 34°35' E 138°49'613.0
2018-Apr-19 14:00N 34°36' E 138°56'712.8
2018-Apr-19 13:29N 34°40' E 139°02'812.5
2018-Apr-19 12:51N 34°46' E 139°09'412.3
2018-Apr-19 12:31N 34°49' E 139°12'712.4
2018-Apr-19 11:56N 34°54' E 139°19'511.7
2018-Apr-19 11:28N 34°57' E 139°24'511.6
2018-Apr-19 11:01N 35°00' E 139°30'612.0
2018-Apr-19 10:31N 35°04' E 139°36'612.8
2018-Apr-19 10:00N 35°07' E 139°42'612.5
2018-Apr-19 09:31N 35°13' E 139°46'510.4
2018-Apr-19 09:00N 35°18' E 139°44'510.4
2018-Apr-19 08:30N 35°23' E 139°42'510.1
2018-Apr-19 08:00N 35°27' E 139°45'611.6
2018-Apr-19 07:31N 35°31' E 139°50'510.2
2018-Apr-19 07:00N 35°36' E 139°47'0 1.0
2018-Apr-19 06:30N 35°36' E 139°46'0 0.0
2018-Apr-19 05:48N 35°36' E 139°46'0 0.0
2018-Apr-19 05:27N 35°36' E 139°46'0 0.0
2018-Apr-19 04:54N 35°36' E 139°46'0 0.0
2018-Apr-19 04:24N 35°36' E 139°46'0 0.0
2018-Apr-19 04:00N 35°36' E 139°46'3 5.7
2018-Apr-19 03:30N 35°34' E 139°49'3 4.2
2018-Apr-19 02:48N 35°34' E 139°53'0 0.2
2018-Apr-19 02:30N 35°34' E 139°53'0 0.2
2018-Apr-19 02:01N 35°34' E 139°53'4 8.8
2018-Apr-19 01:30N 35°35' E 139°47'2 2.1
2018-Apr-19 00:38N 35°36' E 139°46'0 0.0
2018-Apr-19 00:29N 35°36' E 139°46'0 0.0
2018-Apr-18 23:56N 35°36' E 139°46'0 0.0
2018-Apr-18 23:28N 35°36' E 139°46'3 6.4
2018-Apr-18 23:00N 35°34' E 139°49'3 5.7
2018-Apr-18 22:30N 35°34' E 139°52'2 3.5
2018-Apr-18 22:00N 35°32' E 139°53'4 8.1
2018-Apr-18 21:30N 35°28' E 139°51'510.8
2018-Apr-18 21:00N 35°24' E 139°46'611.5
2018-Apr-18 20:31N 35°19' E 139°44'611.3
2018-Apr-18 20:00N 35°14' E 139°47'611.3
2018-Apr-18 19:30N 35°08' E 139°46'510.6
2018-Apr-18 19:00N 35°04' E 139°42'611.7
2018-Apr-18 18:30N 35°00' E 139°37'1512.5
2018-Apr-18 17:17N 34°51' E 139°22'412.9
2018-Apr-18 16:59N 34°49' E 139°18'713.1
2018-Apr-18 16:29N 34°44' E 139°12'712.4
2018-Apr-18 15:53N 34°40' E 139°05'512.8
2018-Apr-18 15:29N 34°37' E 139°00'911.5
2018-Apr-18 14:41N 34°35' E 138°49'311.6
2018-Apr-18 14:26N 34°35' E 138°46'712.3
2018-Apr-18 13:52N 34°34' E 138°37'612.5
2018-Apr-18 13:24N 34°34' E 138°30'512.6
2018-Apr-18 12:58N 34°34' E 138°24'612.2
2018-Apr-18 12:27N 34°34' E 138°16'612.1
2018-Apr-18 12:00N 34°34' E 138°09'3812.4
2018-Apr-18 08:54N 34°33' E 137°23'612.3
2018-Apr-18 08:27N 34°33' E 137°16'1611.0
2018-Apr-18 06:59N 34°36' E 136°57'612.1
2018-Apr-18 06:30N 34°39' E 136°51'612.5
2018-Apr-18 06:00N 34°45' E 136°47'612.4
2018-Apr-18 05:30N 34°51' E 136°46'612.5
2018-Apr-18 05:00N 34°57' E 136°47'611.2
2018-Apr-18 04:30N 35°02' E 136°51'1 2.2
2018-Apr-18 03:58N 35°03' E 136°50'0 0.0
2018-Apr-18 03:28N 35°03' E 136°50'0 0.0
2018-Apr-18 02:58N 35°03' E 136°50'0 0.0
2018-Apr-18 02:28N 35°03' E 136°50'0 0.0
2018-Apr-18 01:58N 35°03' E 136°50'0 0.0
2018-Apr-18 01:28N 35°03' E 136°50'0 0.0
2018-Apr-18 00:55N 35°03' E 136°50'0 0.4
2018-Apr-18 00:30N 35°03' E 136°50'4 7.8
2018-Apr-18 00:01N 34°59' E 136°49'510.4
2018-Apr-17 23:31N 34°54' E 136°47'4 7.4
2018-Apr-17 23:01N 34°50' E 136°47'4 7.3
2018-Apr-17 22:31N 34°47' E 136°47'510.4
2018-Apr-17 22:01N 34°42' E 136°50'510.6
2018-Apr-17 21:30N 34°38' E 136°54'511.0
2018-Apr-17 21:01N 34°35' E 136°59'910.7
2018-Apr-17 20:09N 34°32' E 137°10'210.9
2018-Apr-17 19:58N 34°32' E 137°12'4810.5
2018-Apr-17 15:23N 34°33' E 138°11'511.7
2018-Apr-17 14:55N 34°34' E 138°17'811.5
2018-Apr-17 14:15N 34°34' E 138°27'610.9
2018-Apr-17 13:40N 34°35' E 138°34'211.1
2018-Apr-17 13:27N 34°35' E 138°37'511.5
2018-Apr-17 12:59N 34°35' E 138°44'911.8
2018-Apr-17 12:15N 34°35' E 138°55'511.5
2018-Apr-17 11:51N 34°37' E 138°59'411.5
2018-Apr-17 11:29N 34°40' E 139°03'912.1
2018-Apr-17 10:43N 34°47' E 139°11'1511.3
2018-Apr-17 09:25N 34°57' E 139°24'410.4
2018-Apr-17 09:00N 35°00' E 139°28'510.1
2018-Apr-17 08:30N 35°02' E 139°33'611.5
2018-Apr-17 08:00N 35°05' E 139°39'612.2
2018-Apr-17 07:31N 35°10' E 139°44'511.0
2018-Apr-17 07:00N 35°15' E 139°46'510.8
2018-Apr-17 06:30N 35°20' E 139°43'510.5
2018-Apr-17 06:00N 35°25' E 139°43'611.6
2018-Apr-17 05:30N 35°29' E 139°48'5 8.9
2018-Apr-17 04:58N 35°34' E 139°49'3 3.8
2018-Apr-17 04:07N 35°36' E 139°46'0 0.0
2018-Apr-17 03:55N 35°36' E 139°46'0 0.0
2018-Apr-17 03:25N 35°36' E 139°46'0 0.0
2018-Apr-17 02:55N 35°36' E 139°46'0 0.0
2018-Apr-17 02:26N 35°36' E 139°46'0 0.0
2018-Apr-17 01:59N 35°36' E 139°46'0 0.0
2018-Apr-17 01:25N 35°36' E 139°46'0 0.0
2018-Apr-17 01:00N 35°36' E 139°46'3 6.1
2018-Apr-17 00:30N 35°34' E 139°49'510.8
2018-Apr-17 00:00N 35°30' E 139°52'612.0
2018-Apr-16 23:30N 35°25' E 139°47'611.5
2018-Apr-16 23:00N 35°20' E 139°44'510.6
2018-Apr-16 22:30N 35°15' E 139°47'611.3
2018-Apr-16 22:00N 35°09' E 139°46'510.7
2018-Apr-16 21:30N 35°05' E 139°43'511.0
2018-Apr-16 21:00N 35°01' E 139°37'611.6
2018-Apr-16 20:30N 34°58' E 139°32'912.1
2018-Apr-16 19:45N 34°52' E 139°23'411.9
2018-Apr-16 19:25N 34°50' E 139°19'511.8
2018-Apr-16 19:00N 34°46' E 139°15'811.6
2018-Apr-16 18:17N 34°41' E 139°07'310.7
2018-Apr-16 18:00N 34°39' E 139°04'610.8
2018-Apr-16 17:26N 34°36' E 138°58'710.6
2018-Apr-16 16:45N 34°35' E 138°49'310.7
2018-Apr-16 16:27N 34°35' E 138°45'4 8.9
2018-Apr-16 16:00N 34°36' E 138°41'511.0
2018-Apr-16 15:30N 34°41' E 138°39'611.3
2018-Apr-16 15:00N 34°47' E 138°38'611.4
2018-Apr-16 14:30N 34°53' E 138°36'611.7
2018-Apr-16 14:00N 34°58' E 138°34'5 9.1
2018-Apr-16 13:30N 35°02' E 138°31'0 0.8
2018-Apr-16 12:56N 35°02' E 138°30'0 0.0
2018-Apr-16 12:29N 35°02' E 138°30'0 0.0
2018-Apr-16 11:59N 35°02' E 138°30'0 0.0
2018-Apr-16 11:30N 35°02' E 138°30'0 0.0
2018-Apr-16 11:01N 35°02' E 138°30'1 1.8
2018-Apr-16 10:30N 35°02' E 138°31'3 6.0
2018-Apr-16 10:01N 34°59' E 138°33'611.6
2018-Apr-16 09:31N 34°54' E 138°30'612.2
2018-Apr-16 09:00N 34°48' E 138°26'612.1
2018-Apr-16 08:28N 34°43' E 138°22'612.7
2018-Apr-16 07:58N 34°37' E 138°18'611.8
2018-Apr-16 07:30N 34°35' E 138°12'1013.1
2018-Apr-16 06:45N 34°34' E 138°00'3313.3
2018-Apr-16 04:15N 34°33' E 137°20'413.5
2018-Apr-16 03:59N 34°32' E 137°16'1013.3
2018-Apr-16 03:12N 34°32' E 137°03'513.4
2018-Apr-16 02:49N 34°35' E 136°58'514.2
2018-Apr-16 02:29N 34°38' E 136°54'714.1
2018-Apr-16 02:00N 34°43' E 136°48'714.4
2018-Apr-16 01:31N 34°50' E 136°46'714.5
2018-Apr-16 01:00N 34°57' E 136°46'611.4
2018-Apr-16 00:30N 35°02' E 136°50'1 2.7
2018-Apr-15 23:59N 35°03' E 136°50'0 0.0
2018-Apr-15 23:29N 35°03' E 136°50'0 0.0
2018-Apr-15 23:00N 35°03' E 136°50'2 4.2
2018-Apr-15 22:30N 35°01' E 136°50'510.1
2018-Apr-15 22:00N 34°56' E 136°47'5 9.1
2018-Apr-15 21:30N 34°52' E 136°46'3 6.5
2018-Apr-15 21:00N 34°49' E 136°46'5 9.5
2018-Apr-15 20:30N 34°44' E 136°48'5 9.8
2018-Apr-15 19:57N 34°40' E 136°52'510.3
2018-Apr-15 19:29N 34°37' E 136°57'22 9.6
2018-Apr-15 17:12N 34°32' E 137°23'42 8.1
2018-Apr-15 11:59N 34°34' E 138°14'3 6.8
2018-Apr-15 11:30N 34°35' E 138°18'5 9.7
2018-Apr-15 11:00N 34°39' E 138°15'1 1.0
2018-Apr-15 10:18N 34°39' E 138°14'0 0.0
2018-Apr-15 10:00N 34°39' E 138°14'0 0.0
2018-Apr-15 09:27N 34°39' E 138°14'0 0.0
2018-Apr-15 08:57N 34°39' E 138°14'0 0.0
2018-Apr-15 08:30N 34°39' E 138°14'0 0.0
2018-Apr-15 08:00N 34°39' E 138°14'0 0.0
2018-Apr-15 06:56N 34°39' E 138°14'0 0.0
2018-Apr-15 06:30N 34°39' E 138°14'0 0.0
2018-Apr-15 06:00N 34°39' E 138°14'0 0.0
2018-Apr-15 05:11N 34°39' E 138°14'0 0.0
2018-Apr-15 04:55N 34°39' E 138°14'0 0.0
2018-Apr-15 04:29N 34°39' E 138°14'0 0.1
2018-Apr-15 04:00N 34°39' E 138°14'0 0.0
2018-Apr-15 03:30N 34°39' E 138°14'0 0.0
2018-Apr-15 03:00N 34°39' E 138°14'0 0.0
2018-Apr-15 02:30N 34°39' E 138°14'0 0.0
2018-Apr-15 02:00N 34°39' E 138°14'0 0.0
2018-Apr-15 01:30N 34°39' E 138°14'0 0.0
2018-Apr-15 01:00N 34°39' E 138°14'0 0.0
2018-Apr-15 00:30N 34°39' E 138°14'0 0.0
2018-Apr-15 00:00N 34°39' E 138°14'0 0.0
2018-Apr-14 23:25N 34°39' E 138°14'0 0.1
2018-Apr-14 22:48N 34°39' E 138°14'0 0.0
2018-Apr-14 22:18N 34°39' E 138°14'0 0.0
2018-Apr-14 20:42N 34°39' E 138°14'0 0.0
2018-Apr-14 20:01N 34°39' E 138°14'0 0.0
2018-Apr-14 19:57N 34°39' E 138°14'0 0.0
2018-Apr-14 18:38N 34°39' E 138°14'0 0.0
2018-Apr-14 18:22N 34°39' E 138°14'0 0.0
2018-Apr-14 16:41N 34°39' E 138°13'1 2.5
2018-Apr-14 16:14N 34°40' E 138°14'3 8.0
2018-Apr-14 15:54N 34°40' E 138°17'613.4
2018-Apr-14 15:27N 34°39' E 138°24'613.3
2018-Apr-14 15:00N 34°38' E 138°31'713.4
2018-Apr-14 14:28N 34°37' E 138°40'712.5
2018-Apr-14 13:56N 34°35' E 138°48'511.0
2018-Apr-14 13:27N 34°35' E 138°54'811.0
2018-Apr-14 12:41N 34°40' E 139°02'312.7
2018-Apr-14 12:25N 34°43' E 139°05'613.2
2018-Apr-14 11:59N 34°48' E 139°09'912.0
2018-Apr-14 11:14N 34°53' E 139°18'311.0
2018-Apr-14 10:56N 34°55' E 139°21'510.8
2018-Apr-14 10:30N 34°58' E 139°26'510.6
2018-Apr-14 10:01N 35°01' E 139°31'611.2
2018-Apr-14 09:30N 35°04' E 139°37'611.1
2018-Apr-14 09:01N 35°07' E 139°42'611.5
2018-Apr-14 08:30N 35°12' E 139°46'611.5
2018-Apr-14 08:00N 35°18' E 139°44'612.6
2018-Apr-14 07:30N 35°23' E 139°41'1 1.4
2018-Apr-14 07:00N 35°24' E 139°41'0 0.0
2018-Apr-14 06:30N 35°24' E 139°41'0 0.0
2018-Apr-14 06:00N 35°24' E 139°41'0 0.0
2018-Apr-14 05:30N 35°24' E 139°41'1 1.2
2018-Apr-14 05:00N 35°24' E 139°40'2 4.8
2018-Apr-14 04:30N 35°21' E 139°41'510.9
2018-Apr-14 04:00N 35°17' E 139°46'611.1
2018-Apr-14 03:30N 35°11' E 139°46'611.7
2018-Apr-14 03:00N 35°06' E 139°45'611.2
2018-Apr-14 02:31N 35°01' E 139°41'611.5
2018-Apr-14 02:00N 34°58' E 139°35'1112.1
2018-Apr-14 01:04N 34°52' E 139°23'212.4
2018-Apr-14 00:55N 34°51' E 139°21'512.8
2018-Apr-14 00:30N 34°48' E 139°16'1012.4
2018-Apr-13 23:44N 34°42' E 139°07'312.5
2018-Apr-13 23:28N 34°40' E 139°04'611.7
2018-Apr-13 22:56N 34°36' E 138°58'711.8
2018-Apr-13 22:19N 34°35' E 138°49'411.8
2018-Apr-13 22:00N 34°35' E 138°44'611.6
2018-Apr-13 21:31N 34°35' E 138°37'610.9
2018-Apr-13 20:58N 34°34' E 138°30'511.2
2018-Apr-13 20:30N 34°34' E 138°24'611.5
2018-Apr-13 20:01N 34°34' E 138°17'611.4
2018-Apr-13 19:28N 34°34' E 138°09'3911.6
2018-Apr-13 16:08N 34°33' E 137°23'211.9
2018-Apr-13 15:58N 34°33' E 137°20'612.0
2018-Apr-13 15:30N 34°32' E 137°13'911.7
2018-Apr-13 14:42N 34°32' E 137°02'512.5
2018-Apr-13 14:16N 34°36' E 136°57'312.7
2018-Apr-13 14:00N 34°38' E 136°54'812.2
2018-Apr-13 13:23N 34°43' E 136°48'512.8
2018-Apr-13 13:00N 34°48' E 136°46'613.0
2018-Apr-13 12:30N 34°54' E 136°46'612.3
2018-Apr-13 12:00N 34°60' E 136°49'3 6.6
2018-Apr-13 11:30N 35°03' E 136°50'0 0.0
2018-Apr-13 10:58N 35°03' E 136°50'0 0.0
2018-Apr-13 10:25N 35°03' E 136°50'0 0.0
2018-Apr-13 09:58N 35°03' E 136°50'2 2.4
2018-Apr-13 09:01N 35°01' E 136°48'510.1
2018-Apr-13 08:30N 34°56' E 136°46'5 9.7
2018-Apr-13 08:00N 34°51' E 136°47'5 9.8
2018-Apr-13 07:30N 34°46' E 136°47'510.0
2018-Apr-13 07:00N 34°43' E 136°51'510.2
2018-Apr-13 06:29N 34°38' E 136°55'511.3
2018-Apr-13 06:00N 34°34' E 136°60'1011.5
2018-Apr-13 05:07N 34°31' E 137°11'210.9
2018-Apr-13 04:56N 34°31' E 137°14'56 9.4
2018-Apr-12 23:00N 34°34' E 138°21'5 9.4
2018-Apr-12 22:31N 34°35' E 138°27'5 9.9
2018-Apr-12 21:58N 34°35' E 138°33'510.0
2018-Apr-12 21:31N 34°35' E 138°39'510.0
2018-Apr-12 20:59N 34°35' E 138°45'8 9.8
2018-Apr-12 20:12N 34°36' E 138°54'1110.7
2018-Apr-12 19:11N 34°43' E 139°04'511.5
2018-Apr-12 18:46N 34°47' E 139°08'711.7
2018-Apr-12 18:11N 34°51' E 139°14'310.7
2018-Apr-12 17:56N 34°53' E 139°17'510.0
2018-Apr-12 17:28N 34°55' E 139°22'5 9.9
2018-Apr-12 17:00N 34°58' E 139°26'510.7
2018-Apr-12 16:30N 35°01' E 139°32'611.2
2018-Apr-12 16:01N 35°04' E 139°37'612.0
2018-Apr-12 15:30N 35°08' E 139°43'611.5
2018-Apr-12 15:00N 35°13' E 139°46'510.7
2018-Apr-12 14:30N 35°18' E 139°44'611.0
2018-Apr-12 14:00N 35°23' E 139°42'612.0
2018-Apr-12 13:30N 35°28' E 139°47'611.9
2018-Apr-12 13:01N 35°33' E 139°51'510.0
2018-Apr-12 12:30N 35°36' E 139°46'0 0.1
2018-Apr-12 11:56N 35°36' E 139°46'0 0.0
2018-Apr-12 11:23N 35°36' E 139°46'0 0.0
2018-Apr-12 10:59N 35°36' E 139°46'0 0.0
2018-Apr-12 10:30N 35°36' E 139°46'3 6.2
2018-Apr-12 10:00N 35°34' E 139°49'3 6.7
2018-Apr-12 09:30N 35°33' E 139°53'0 0.1
2018-Apr-12 08:58N 35°33' E 139°53'0 0.2
2018-Apr-12 08:28N 35°33' E 139°53'0 0.0
2018-Apr-12 07:58N 35°33' E 139°53'0 0.0
2018-Apr-12 07:28N 35°33' E 139°53'0 0.0
2018-Apr-12 06:55N 35°33' E 139°53'0 0.0
2018-Apr-12 05:25N 35°33' E 139°53'0 0.1
2018-Apr-12 04:49N 35°33' E 139°53'0 0.0
2018-Apr-12 04:28N 35°33' E 139°53'0 0.0
2018-Apr-12 03:58N 35°33' E 139°53'0 0.1
2018-Apr-12 03:16N 35°33' E 139°53'0 0.1
2018-Apr-12 02:52N 35°33' E 139°53'0 0.1
2018-Apr-12 02:28N 35°33' E 139°53'0 0.0
2018-Apr-12 01:55N 35°33' E 139°53'0 0.0
2018-Apr-12 01:25N 35°33' E 139°53'0 0.0
2018-Apr-12 00:58N 35°33' E 139°53'0 0.0
2018-Apr-12 00:28N 35°33' E 139°53'0 0.0
2018-Apr-11 23:58N 35°33' E 139°53'0 0.0
2018-Apr-11 23:28N 35°33' E 139°53'0 0.0
2018-Apr-11 22:58N 35°33' E 139°53'0 0.0
2018-Apr-11 22:28N 35°33' E 139°53'0 0.0
2018-Apr-11 21:52N 35°33' E 139°53'0 0.0
2018-Apr-11 21:25N 35°33' E 139°53'0 0.0
2018-Apr-11 20:49N 35°33' E 139°53'0 0.0
2018-Apr-11 20:25N 35°33' E 139°53'0 0.2
2018-Apr-11 19:47N 35°33' E 139°53'1 2.5
2018-Apr-11 19:30N 35°33' E 139°53'510.9
2018-Apr-11 19:00N 35°28' E 139°51'611.1
2018-Apr-11 18:30N 35°24' E 139°46'611.4
2018-Apr-11 18:00N 35°18' E 139°45'611.1
2018-Apr-11 17:30N 35°13' E 139°47'611.9
2018-Apr-11 17:00N 35°07' E 139°45'611.0
2018-Apr-11 16:30N 35°03' E 139°41'612.0
2018-Apr-11 16:00N 34°59' E 139°35'713.4
2018-Apr-11 15:27N 34°55' E 139°27'714.3
2018-Apr-11 14:57N 34°51' E 139°20'612.5
2018-Apr-11 14:30N 34°47' E 139°15'911.9
2018-Apr-11 13:44N 34°42' E 139°06'711.7
2018-Apr-11 13:08N 34°37' E 138°60'212.0
2018-Apr-11 13:00N 34°36' E 138°58'712.8
2018-Apr-11 12:25N 34°35' E 138°49'612.0
2018-Apr-11 11:58N 34°35' E 138°43'611.7
2018-Apr-11 11:28N 34°35' E 138°36'611.0
2018-Apr-11 10:57N 34°35' E 138°29'511.2
2018-Apr-11 10:29N 34°35' E 138°22'611.5
2018-Apr-11 09:58N 34°35' E 138°15'4412.1
2018-Apr-11 06:20N 34°34' E 137°22'512.0
2018-Apr-11 05:54N 34°33' E 137°16'1810.0
2018-Apr-11 04:03N 34°38' E 136°54'110.1
2018-Apr-11 03:59N 34°38' E 136°53'6 9.9
2018-Apr-11 03:21N 34°43' E 136°49'410.4
2018-Apr-11 03:00N 34°46' E 136°46'510.5
2018-Apr-11 02:30N 34°52' E 136°46'510.9
2018-Apr-11 02:00N 34°57' E 136°47'611.1
2018-Apr-11 01:30N 35°01' E 136°50'1 2.4
2018-Apr-11 00:59N 35°03' E 136°50'0 0.0
2018-Apr-11 00:29N 35°03' E 136°50'0 0.0
2018-Apr-10 23:59N 35°03' E 136°50'0 0.0
2018-Apr-10 23:27N 35°03' E 136°50'1 3.4
2018-Apr-10 23:00N 35°01' E 136°50'5 9.7
2018-Apr-10 22:30N 34°58' E 136°45'0 0.2
2018-Apr-10 22:00N 34°58' E 136°45'0 0.0
2018-Apr-10 21:30N 34°58' E 136°45'0 0.0
2018-Apr-10 21:00N 34°58' E 136°45'0 0.0
2018-Apr-10 20:30N 34°58' E 136°45'0 0.1
2018-Apr-10 20:00N 34°58' E 136°45'0 0.0
2018-Apr-10 19:30N 34°58' E 136°45'0 0.0
2018-Apr-10 19:00N 34°58' E 136°45'0 0.0
2018-Apr-10 18:30N 34°58' E 136°45'0 0.1
2018-Apr-10 18:00N 34°58' E 136°45'0 0.1
2018-Apr-10 17:30N 34°58' E 136°45'0 0.1
2018-Apr-10 17:00N 34°58' E 136°45'0 0.0
2018-Apr-10 16:30N 34°58' E 136°45'0 0.0
2018-Apr-10 16:00N 34°58' E 136°45'0 0.0
2018-Apr-10 15:30N 34°58' E 136°45'0 0.0
2018-Apr-10 15:00N 34°58' E 136°45'0 0.0
2018-Apr-10 14:30N 34°58' E 136°45'0 0.0
2018-Apr-10 14:00N 34°58' E 136°45'0 0.0
2018-Apr-10 13:30N 34°58' E 136°45'0 0.0
2018-Apr-10 13:00N 34°58' E 136°45'0 0.0
2018-Apr-10 12:30N 34°58' E 136°45'0 0.0
2018-Apr-10 12:00N 34°58' E 136°45'0 0.0
2018-Apr-10 11:30N 34°58' E 136°45'0 0.0
2018-Apr-10 11:00N 34°58' E 136°45'0 0.0
2018-Apr-10 10:30N 34°58' E 136°45'0 0.0
2018-Apr-10 10:00N 34°58' E 136°45'0 0.0
2018-Apr-10 09:30N 34°58' E 136°45'0 0.1
2018-Apr-10 09:00N 34°58' E 136°45'0 0.0
2018-Apr-10 08:30N 34°58' E 136°45'0 0.0
2018-Apr-10 08:00N 34°58' E 136°45'0 0.0
2018-Apr-10 07:30N 34°58' E 136°45'3 6.2
2018-Apr-10 07:00N 34°59' E 136°42'1 2.6
2018-Apr-10 06:27N 34°59' E 136°40'0 0.0
2018-Apr-10 05:57N 34°60' E 136°40'0 0.0
2018-Apr-10 05:27N 34°60' E 136°40'0 0.0
2018-Apr-10 05:00N 34°59' E 136°40'0 0.0
2018-Apr-10 04:27N 34°60' E 136°40'0 0.0
2018-Apr-10 04:00N 34°60' E 136°40'3 6.4
2018-Apr-10 03:31N 34°59' E 136°44'5 9.9
2018-Apr-10 03:00N 34°54' E 136°43'611.8
2018-Apr-10 02:30N 34°48' E 136°46'713.2
2018-Apr-10 02:00N 34°43' E 136°51'1211.5
2018-Apr-10 00:58N 34°41' E 137°06'712.4
2018-Apr-10 00:24N 34°44' E 137°14'4 2.9
2018-Apr-09 23:02N 34°44' E 137°18'0 3.4
2018-Apr-09 23:00N 34°44' E 137°18'5 9.7
2018-Apr-09 22:27N 34°44' E 137°12'1 0.8
2018-Apr-09 21:44N 34°44' E 137°11'0 0.0
2018-Apr-09 21:08N 34°44' E 137°11'0 0.0
2018-Apr-09 20:56N 34°44' E 137°11'2 2.7
2018-Apr-09 20:19N 34°43' E 137°09'310.9
2018-Apr-09 20:00N 34°42' E 137°06'610.4
2018-Apr-09 19:28N 34°38' E 137°00'4 8.3
2018-Apr-09 19:00N 34°34' E 136°60'1910.4
2018-Apr-09 17:13N 34°31' E 137°22'  

Dump ship's entire track history